This is the latest recevied weather packets stored in our database for station/object GW4003. If no packets are shown the sender has not sent any weather packets the latest 1 day(s).
| Time | Temp. | Humidity | Pressure | Rain* | Wind** | Luminosity | Snow |
|---|---|---|---|---|---|---|---|
| 1778000676 | 3.89° C | 89% | 1015.6 hPa | 0.25 mm | 0.45 m/s, 9° | - | - |
| 1778000375 | 3.89° C | 89% | 1015.7 hPa | 0.25 mm | 1.79 m/s, 360° | - | - |
| 1778000071 | 3.89° C | 89% | 1015.7 hPa | 0.25 mm | 1.79 m/s, 58° | - | - |
| 1777999768 | 3.89° C | 89% | 1015.7 hPa | 0 mm | 1.34 m/s, 32° | - | - |
| 1777999465 | 3.89° C | 89% | 1015.7 hPa | 0 mm | 0 m/s | - | - |
| 1777999162 | 3.33° C | 89% | 1015.8 hPa | 0 mm | 0 m/s | - | - |
| 1777998858 | 3.89° C | 89% | 1015.8 hPa | 0 mm | 1.79 m/s, 38° | - | - |
| 1777998555 | 3.89° C | 89% | 1015.8 hPa | 0 mm | 0.89 m/s, 29° | - | - |
| 1777998253 | 3.89° C | 89% | 1015.9 hPa | 0 mm | 0.89 m/s, 13° | - | - |
| 1777997950 | 3.89° C | 89% | 1015.9 hPa | 0 mm | 0.45 m/s, 50° | - | - |
| 1777997647 | 3.33° C | 89% | 1015.9 hPa | 0 mm | 1.34 m/s, 337° | - | - |
| 1777997344 | 3.33° C | 89% | 1015.9 hPa | 0 mm | 0.45 m/s, 14° | - | - |
| 1777997041 | 3.33° C | 89% | 1015.9 hPa | 0 mm | 0 m/s | - | - |
| 1777996738 | 3.33° C | 89% | 1016 hPa | 0 mm | 0.89 m/s, 352° | - | - |
| 1777996435 | 3.89° C | 89% | 1015.9 hPa | 0 mm | 1.34 m/s, 352° | - | - |
| 1777996131 | 3.33° C | 90% | 1016.1 hPa | 0 mm | 0.45 m/s, 343° | - | - |
| 1777995828 | 3.33° C | 89% | 1016.1 hPa | 0.25 mm | 0 m/s | - | - |
| 1777995525 | 3.33° C | 89% | 1016.1 hPa | 0.25 mm | 0 m/s | - | - |
| 1777995222 | 3.33° C | 89% | 1016.2 hPa | 0.25 mm | 0.45 m/s, 285° | - | - |
| 1777994919 | 3.33° C | 89% | 1016.1 hPa | 0.25 mm | 0.45 m/s, 29° | - | - |
| 1777994615 | 3.33° C | 89% | 1016.2 hPa | 0.25 mm | 0 m/s | - | - |
| 1777994311 | 3.33° C | 89% | 1016.2 hPa | 0.25 mm | 0.89 m/s, 345° | - | - |
| 1777994008 | 3.33° C | 89% | 1016.2 hPa | 0.25 mm | 0.89 m/s, 298° | - | - |
| 1777993705 | 2.78° C | 89% | 1016.1 hPa | 0.25 mm | 0 m/s | - | - |
| 1777993402 | 3.33° C | 89% | 1016.2 hPa | 0.25 mm | 0.89 m/s, 304° | - | - |
* Rain latest hour (hover to see other rain measurements)
** Current wind speed in m/s (hover to see current wind gust speed)